Time;durP1;ratioP1;P1;durP2;ratioP2;P2;SDS_P1;SDS_P2;PMS_P1;PMS_P2;Temp;Humidity;BMP_temperature;BMP_pressure;BME280_temperature;BME280_humidity;BME280_pressure;Samples;Min_cycle;Max_cycle;Signal;HPM_P1;HPM_P2
2022/04/15 00:01:53;;;;;;;;;;;;;;;22.01;66.51;97429.45;619711;229;64932;-67
2022/04/15 00:04:20;;;;;;;;;;;;;;;22.00;65.89;97425.98;619749;229;64825;-67
2022/04/15 00:06:48;;;;;;;;;;;;;;;22.00;65.15;97422.52;619784;229;63170;-67
2022/04/15 00:09:15;;;;;;;;;;;;;;;21.99;64.72;97416.36;619693;229;67481;-67
2022/04/15 00:11:44;;;;;;;;;;;;;;;22.00;65.33;97422.52;619758;229;67199;-67
2022/04/15 00:14:12;;;;;;;;;;;;;;;21.99;65.28;97423.56;619743;229;65426;-67
2022/04/15 00:16:43;;;;;;;;;;;;;;;21.99;64.26;97420.89;619731;229;65015;-67
2022/04/15 00:19:09;;;;;;;;;;;;;;;22.00;66.90;97417.16;619731;228;67302;-67
2022/04/15 00:21:37;;;;;;;;;;;;;;;21.97;65.27;97417.70;619712;229;63168;-67
2022/04/15 00:24:05;;;;;;;;;;;;;;;21.97;66.17;97423.05;619727;229;67255;-67
2022/04/15 00:26:32;;;;;;;;;;;;;;;21.97;65.12;97417.70;619755;229;66864;-67
2022/04/15 00:29:00;;;;;;;;;;;;;;;21.97;65.53;97423.05;619736;229;66133;-67
2022/04/15 00:31:28;;;;;;;;;;;;;;;21.95;64.88;97412.59;619756;229;67197;-67
2022/04/15 00:33:55;;;;;;;;;;;;;;;21.97;66.04;97412.34;619744;229;66882;-67
2022/04/15 00:36:23;;;;;;;;;;;;;;;21.94;64.98;97409.13;619716;229;63321;-67
2022/04/15 00:38:50;;;;;;;;;;;;;;;21.96;64.85;97406.17;619700;229;64695;-67
2022/04/15 00:41:18;;;;;;;;;;;;;;;21.95;66.25;97405.38;618432;229;67376;-67
2022/04/15 00:43:46;;;;;;;;;;;;;;;21.94;65.88;97395.75;617528;230;62861;-67
2022/04/15 00:46:13;;;;;;;;;;;;;;;21.94;66.15;97398.42;617495;230;65124;-67
2022/04/15 00:48:41;;;;;;;;;;;;;;;21.94;67.32;97400.30;617500;230;65155;-67
2022/04/15 00:51:09;;;;;;;;;;;;;;;21.93;66.74;97396.83;617477;230;65139;-67
2022/04/15 00:53:40;;;;;;;;;;;;;;;21.91;65.19;97396.28;617489;230;67192;-67
2022/04/15 00:56:08;;;;;;;;;;;;;;;21.91;65.69;97398.96;617566;230;67072;-67
2022/04/15 00:58:37;;;;;;;;;;;;;;;21.90;64.80;97400.02;617487;230;65338;-67
2022/04/15 01:01:05;;;;;;;;;;;;;;;21.91;65.16;97401.64;617507;230;67312;-67
2022/04/15 01:03:33;;;;;;;;;;;;;;;21.92;65.44;97405.91;617495;230;67032;-67
2022/04/15 01:06:00;;;;;;;;;;;;;;;21.93;65.09;97404.03;617507;230;65233;-67
2022/04/15 01:08:29;;;;;;;;;;;;;;;21.90;66.11;97399.22;617485;230;67376;-67
2022/04/15 01:10:58;;;;;;;;;;;;;;;21.90;66.40;97400.02;617546;230;66985;-67
2022/04/15 01:13:26;;;;;;;;;;;;;;;21.89;65.58;97403.77;617499;230;65312;-67
2022/04/15 01:15:55;;;;;;;;;;;;;;;21.90;65.16;97404.56;617469;230;65070;-67
2022/04/15 01:18:23;;;;;;;;;;;;;;;21.90;66.48;97405.36;617514;230;67055;-67
2022/04/15 01:20:52;;;;;;;;;;;;;;;21.90;64.74;97399.22;617515;230;63088;-67
2022/04/15 01:23:20;;;;;;;;;;;;;;;21.88;65.29;97399.50;617516;230;67097;-67
2022/04/15 01:25:48;;;;;;;;;;;;;;;21.89;65.16;97401.09;617528;230;66882;-67
2022/04/15 01:28:20;;;;;;;;;;;;;;;21.88;66.25;97402.17;617490;230;65320;-67
2022/04/15 01:30:45;;;;;;;;;;;;;;;21.88;65.33;97404.02;617414;228;67184;-67
2022/04/15 01:33:13;;;;;;;;;;;;;;;21.87;66.01;97402.43;617481;230;67216;-67
2022/04/15 01:35:40;;;;;;;;;;;;;;;21.88;65.28;97401.34;617543;230;65406;-67
2022/04/15 01:38:12;;;;;;;;;;;;;;;21.87;65.20;97403.23;617480;230;67200;-67
2022/04/15 01:40:38;;;;;;;;;;;;;;;21.87;65.27;97402.43;617414;228;67005;-67
2022/04/15 01:43:06;;;;;;;;;;;;;;;21.86;65.78;97393.61;617481;230;63245;-67
2022/04/15 01:45:34;;;;;;;;;;;;;;;21.86;66.51;97400.84;617537;229;67179;-67
2022/04/15 01:48:02;;;;;;;;;;;;;;;21.85;65.42;97402.72;617585;229;67046;-67
2022/04/15 01:50:30;;;;;;;;;;;;;;;21.84;65.92;97401.09;617543;230;63245;-67
2022/04/15 01:52:58;;;;;;;;;;;;;;;21.84;66.10;97398.41;617526;230;64679;-67
2022/04/15 01:55:26;;;;;;;;;;;;;;;21.84;65.92;97397.62;617488;230;67039;-67
2022/04/15 01:57:53;;;;;;;;;;;;;;;21.83;66.55;97404.84;617506;230;65292;-67
2022/04/15 02:00:21;;;;;;;;;;;;;;;21.82;65.63;97397.87;617530;230;67626;-67
2022/04/15 02:02:49;;;;;;;;;;;;;;;21.82;67.19;97397.87;617566;230;67098;-67
2022/04/15 02:05:16;;;;;;;;;;;;;;;21.82;66.84;97395.20;617539;230;65254;-67
2022/04/15 02:07:44;;;;;;;;;;;;;;;21.82;66.41;97395.20;617546;230;67223;-67
2022/04/15 02:10:11;;;;;;;;;;;;;;;21.84;65.97;97400.29;617463;230;66999;-67
2022/04/15 02:12:39;;;;;;;;;;;;;;;21.82;66.08;97395.20;617545;230;65283;-67
2022/04/15 02:15:07;;;;;;;;;;;;;;;21.83;66.09;97390.67;617568;230;67022;-67
2022/04/15 02:17:34;;;;;;;;;;;;;;;21.83;66.25;97396.02;617511;230;67197;-67
2022/04/15 02:20:02;;;;;;;;;;;;;;;21.81;65.98;97395.48;617526;230;65306;-67
2022/04/15 02:22:30;;;;;;;;;;;;;;;21.80;65.74;97389.33;617470;230;67155;-67
2022/04/15 02:24:57;;;;;;;;;;;;;;;21.80;65.25;97389.33;617496;230;64502;-67
2022/04/15 02:27:25;;;;;;;;;;;;;;;21.81;65.44;97379.42;617575;230;63306;-67
2022/04/15 02:29:52;;;;;;;;;;;;;;;21.80;66.40;97375.12;617529;230;65142;-67
2022/04/15 02:32:20;;;;;;;;;;;;;;;21.79;66.01;97373.53;617524;230;64922;-67
2022/04/15 02:34:47;;;;;;;;;;;;;;;21.80;67.35;97375.12;617491;229;63138;-67
2022/04/15 02:37:15;;;;;;;;;;;;;;;21.78;66.67;97377.28;617518;230;64475;-67
2022/04/15 02:39:42;;;;;;;;;;;;;;;21.78;66.43;97372.73;617592;230;64043;-67
2022/04/15 02:42:10;;;;;;;;;;;;;;;21.76;66.01;97360.69;619564;229;63226;-66
2022/04/15 02:44:38;;;;;;;;;;;;;;;21.78;67.02;97364.70;619776;229;64693;-67
2022/04/15 02:47:07;;;;;;;;;;;;;;;21.78;65.99;97370.06;619747;229;66921;-67
2022/04/15 02:49:35;;;;;;;;;;;;;;;21.77;66.05;97372.98;619744;229;65319;-67
2022/04/15 02:52:04;;;;;;;;;;;;;;;21.77;66.08;97373.81;619793;229;66837;-67
2022/04/15 02:54:31;;;;;;;;;;;;;;;21.76;66.14;97374.87;619710;229;66800;-67
2022/04/15 02:56:59;;;;;;;;;;;;;;;21.77;65.04;97370.31;619775;229;63146;-67
2022/04/15 02:59:26;;;;;;;;;;;;;;;21.77;68.15;97376.49;619746;229;66786;-67
2022/04/15 03:01:54;;;;;;;;;;;;;;;21.76;65.54;97374.87;619762;229;67213;-65
2022/04/15 03:04:21;;;;;;;;;;;;;;;21.77;66.38;97370.31;619766;229;65311;-67
2022/04/15 03:06:49;;;;;;;;;;;;;;;21.74;65.37;97374.32;619721;229;66853;-67
2022/04/15 03:09:16;;;;;;;;;;;;;;;21.75;66.44;97375.95;619767;229;64749;-67
2022/04/15 03:11:44;;;;;;;;;;;;;;;21.75;67.07;97378.63;619711;229;65125;-67
2022/04/15 03:14:11;;;;;;;;;;;;;;;21.74;64.71;97379.67;619747;229;64975;-67
2022/04/15 03:16:39;;;;;;;;;;;;;;;21.74;67.23;97379.67;619775;229;64933;-67
2022/04/15 03:19:06;;;;;;;;;;;;;;;21.72;66.92;97371.13;619764;229;63130;-67
2022/04/15 03:21:35;;;;;;;;;;;;;;;21.73;66.64;97378.08;619732;229;66926;-67
2022/04/15 03:24:03;;;;;;;;;;;;;;;21.71;67.10;97377.53;619749;229;64389;-67
2022/04/15 03:26:31;;;;;;;;;;;;;;;21.72;65.71;97376.48;619732;229;65276;-67
2022/04/15 03:28:58;;;;;;;;;;;;;;;21.72;67.25;97382.63;619747;229;67238;-67
2022/04/15 03:31:26;;;;;;;;;;;;;;;21.70;66.86;97381.29;619754;229;67095;-67
2022/04/15 03:33:53;;;;;;;;;;;;;;;21.71;66.80;97377.53;619758;229;65330;-67
2022/04/15 03:36:21;;;;;;;;;;;;;;;21.70;65.71;97387.44;619688;229;67139;-67
2022/04/15 03:38:48;;;;;;;;;;;;;;;21.70;67.10;97387.44;619723;229;64924;-67
2022/04/15 03:41:16;;;;;;;;;;;;;;;21.70;66.86;97386.64;619707;229;63108;-67
2022/04/15 03:43:43;;;;;;;;;;;;;;;21.69;66.79;97385.84;619780;229;66786;-67
2022/04/15 03:46:11;;;;;;;;;;;;;;;21.68;66.09;97388.77;619735;229;64987;-67
2022/04/15 03:48:38;;;;;;;;;;;;;;;21.69;65.65;97385.05;619731;229;63140;-67
2022/04/15 03:51:08;;;;;;;;;;;;;;;21.69;66.27;97385.05;619723;229;64953;-67
2022/04/15 03:53:36;;;;;;;;;;;;;;;21.69;65.49;97390.39;619760;229;65465;-67
2022/04/15 03:56:03;;;;;;;;;;;;;;;21.68;66.65;97383.42;619694;229;63091;-67
2022/04/15 03:58:31;;;;;;;;;;;;;;;21.69;66.95;97393.07;619769;229;65066;-67
2022/04/15 04:00:59;;;;;;;;;;;;;;;21.67;65.79;97393.33;619682;229;67379;-67
2022/04/15 04:03:27;;;;;;;;;;;;;;;21.66;66.20;97389.05;619757;229;65281;-67
2022/04/15 04:05:54;;;;;;;;;;;;;;;21.67;66.46;97387.17;619694;229;64957;-67
2022/04/15 04:08:22;;;;;;;;;;;;;;;21.66;66.05;97391.73;619744;229;64864;-67
2022/04/15 04:10:49;;;;;;;;;;;;;;;21.65;66.61;97386.63;619707;229;65264;-67
2022/04/15 04:13:17;;;;;;;;;;;;;;;21.65;67.01;97386.63;619700;229;67004;-67
2022/04/15 04:15:44;;;;;;;;;;;;;;;21.64;65.87;97385.03;619730;229;67972;-67
2022/04/15 04:18:14;;;;;;;;;;;;;;;21.65;66.84;97394.66;619745;229;65296;-67
2022/04/15 04:20:41;;;;;;;;;;;;;;;21.64;66.28;97387.71;619722;229;66877;-67
2022/04/15 04:23:09;;;;;;;;;;;;;;;21.63;66.50;97397.58;619770;229;67030;-67
2022/04/15 04:25:37;;;;;;;;;;;;;;;21.64;67.19;97395.73;619672;229;63273;-67
2022/04/15 04:28:04;;;;;;;;;;;;;;;21.64;65.71;97398.41;619686;229;64754;-67
2022/04/15 04:30:32;;;;;;;;;;;;;;;21.63;67.37;97400.25;619732;229;67078;-67
2022/04/15 04:32:59;;;;;;;;;;;;;;;21.62;66.95;97395.98;619727;229;65233;-67
2022/04/15 04:35:27;;;;;;;;;;;;;;;21.63;67.21;97391.44;619743;229;67033;-67
2022/04/15 04:37:54;;;;;;;;;;;;;;;21.62;67.23;97395.19;619712;229;67007;-67
2022/04/15 04:40:22;;;;;;;;;;;;;;;21.61;67.00;97380.22;619675;229;65296;-67
2022/04/15 04:42:51;;;;;;;;;;;;;;;21.61;66.54;97390.92;619758;229;67263;-67
2022/04/15 04:45:20;;;;;;;;;;;;;;;21.61;66.25;97388.24;619697;229;67008;-67
2022/04/15 04:47:47;;;;;;;;;;;;;;;21.61;67.05;97390.92;619492;229;65318;-66
2022/04/15 04:50:15;;;;;;;;;;;;;;;21.59;67.80;97390.38;619744;229;67190;-66
2022/04/15 04:52:43;;;;;;;;;;;;;;;21.58;66.56;97389.58;619673;229;67236;-66
2022/04/15 04:55:11;;;;;;;;;;;;;;;21.58;67.80;97388.75;619672;229;65563;-66
2022/04/15 04:57:39;;;;;;;;;;;;;;;21.58;67.07;97386.08;619712;229;67148;-66
2022/04/15 05:00:08;;;;;;;;;;;;;;;21.58;67.20;97388.75;619718;229;66827;-66
2022/04/15 05:02:36;;;;;;;;;;;;;;;21.58;66.93;97388.75;619741;228;65573;-66
2022/04/15 05:05:04;;;;;;;;;;;;;;;21.57;66.78;97382.60;619706;229;67200;-66
2022/04/15 05:07:32;;;;;;;;;;;;;;;21.57;66.95;97387.16;619726;229;64813;-66
2022/04/15 05:09:59;;;;;;;;;;;;;;;21.57;66.67;97381.80;619721;229;63219;-66
2022/04/15 05:12:27;;;;;;;;;;;;;;;21.57;67.18;97387.16;619705;229;67000;-66
2022/04/15 05:14:54;;;;;;;;;;;;;;;21.57;67.37;97381.80;619758;229;67299;-66
2022/04/15 05:17:22;;;;;;;;;;;;;;;21.56;65.13;97383.69;619726;229;65100;-66
2022/04/15 05:19:49;;;;;;;;;;;;;;;21.56;67.60;97383.69;619719;229;67029;-66
2022/04/15 05:22:17;;;;;;;;;;;;;;;21.55;67.07;97384.73;619750;229;67076;-66
2022/04/15 05:24:44;;;;;;;;;;;;;;;21.56;68.44;97382.89;619751;229;64891;-66
2022/04/15 05:27:12;;;;;;;;;;;;;;;21.55;67.68;97378.59;619789;229;64926;-66
2022/04/15 05:29:39;;;;;;;;;;;;;;;21.54;66.57;97382.34;619749;229;64973;-66
2022/04/15 05:32:09;;;;;;;;;;;;;;;21.54;67.29;97382.34;619810;229;46572;-66
2022/04/15 05:34:36;;;;;;;;;;;;;;;21.54;67.35;97385.02;619749;229;64578;-66
2022/04/15 05:37:04;;;;;;;;;;;;;;;21.54;67.37;97379.66;619728;229;64774;-66
2022/04/15 05:39:31;;;;;;;;;;;;;;;21.53;67.19;97376.19;619750;229;65168;-65
2022/04/15 05:41:59;;;;;;;;;;;;;;;21.52;67.86;97371.89;619710;229;67284;-65
2022/04/15 05:44:26;;;;;;;;;;;;;;;21.53;67.35;97378.07;619774;229;64853;-67
2022/04/15 05:46:54;;;;;;;;;;;;;;;21.51;66.75;97378.32;619732;229;63274;-65
2022/04/15 05:49:21;;;;;;;;;;;;;;;21.52;66.89;97382.59;619623;229;67141;-66
2022/04/15 05:51:49;;;;;;;;;;;;;;;21.53;65.87;97380.75;618661;229;64950;-67
2022/04/15 05:54:16;;;;;;;;;;;;;;;21.52;67.34;97376.45;619801;229;63175;-67
2022/04/15 05:56:44;;;;;;;;;;;;;;;21.50;66.88;97380.20;619747;229;64920;-68
2022/04/15 05:59:11;;;;;;;;;;;;;;;21.49;67.12;97373.23;619601;229;64895;-67
2022/04/15 06:01:39;;;;;;;;;;;;;;;21.50;66.77;97372.17;623930;226;62988;-67
2022/04/15 06:04:06;;;;;;;;;;;;;;;21.50;67.10;97372.17;626779;226;65048;-67
2022/04/15 06:06:34;;;;;;;;;;;;;;;21.49;66.56;97372.43;626877;226;67057;-67
2022/04/15 06:09:01;;;;;;;;;;;;;;;21.49;66.24;97367.88;626851;226;63249;-67
2022/04/15 06:11:29;;;;;;;;;;;;;;;21.50;66.30;97366.03;626789;226;64996;-65
2022/04/15 06:13:57;;;;;;;;;;;;;;;21.49;66.74;97367.88;626691;226;67030;-66
2022/04/15 06:16:31;;;;;;;;;;;;;;;21.50;67.57;97363.36;626828;226;62768;-66
2022/04/15 06:18:54;;;;;;;;;;;;;;;21.49;66.54;97357.19;626627;225;64929;-67
2022/04/15 06:21:21;;;;;;;;;;;;;;;21.50;66.54;97350.78;626868;226;65389;-68
2022/04/15 06:23:49;;;;;;;;;;;;;;;21.51;65.55;97359.60;626815;226;65292;-68
2022/04/15 06:26:16;;;;;;;;;;;;;;;21.50;67.30;97352.66;626781;226;64970;-67
2022/04/15 06:28:44;;;;;;;;;;;;;;;21.50;66.48;97356.13;626808;226;65321;-65
2022/04/15 06:31:11;;;;;;;;;;;;;;;21.49;67.18;97349.16;626888;226;63205;-64
2022/04/15 06:33:39;;;;;;;;;;;;;;;21.50;67.02;97350.78;626745;226;67412;-64
2022/04/15 06:36:06;;;;;;;;;;;;;;;21.50;66.73;97350.78;626818;226;67034;-70
2022/04/15 06:38:34;;;;;;;;;;;;;;;21.53;58.47;97348.66;626818;226;63068;-65
2022/04/15 06:41:01;;;;;;;;;;;;;;;21.56;63.33;97350.80;626715;226;64943;-64
2022/04/15 06:43:29;;;;;;;;;;;;;;;21.55;64.48;97349.17;626929;226;64784;-68
2022/04/15 06:45:56;;;;;;;;;;;;;;;21.53;65.36;97345.98;626839;226;65146;-63
2022/04/15 06:48:24;;;;;;;;;;;;;;;21.54;63.73;97339.55;626776;226;66417;-62
2022/04/15 06:50:53;;;;;;;;;;;;;;;21.55;66.25;97341.14;626828;226;64394;-63
2022/04/15 06:53:26;;;;;;;;;;;;;;;21.54;66.14;97334.20;626751;226;62616;-64
2022/04/15 06:55:51;;;;;;;;;;;;;;;21.53;64.75;97333.41;626538;225;64952;-69
2022/04/15 06:58:19;;;;;;;;;;;;;;;21.54;65.13;97331.53;626919;226;66777;-71
2022/04/15 07:00:53;;;;;;;;;;;;;;;21.55;64.85;97330.45;626831;226;65229;-67
2022/04/15 07:03:16;;;;;;;;;;;;;;;21.52;66.31;97325.64;626300;225;67157;-67
2022/04/15 07:05:44;;;;;;;;;;;;;;;21.51;67.35;97314.14;626725;226;63711;-68
2022/04/15 07:08:12;;;;;;;;;;;;;;;21.52;66.91;97320.29;626729;226;66496;-70
2022/04/15 07:10:40;;;;;;;;;;;;;;;21.53;67.56;97321.91;626828;226;67171;-69
2022/04/15 07:13:07;;;;;;;;;;;;;;;21.52;65.96;97321.09;626829;226;67036;-70
2022/04/15 07:15:35;;;;;;;;;;;;;;;21.52;66.39;97320.29;626780;226;65237;-66
2022/04/15 07:18:05;;;;;;;;;;;;;;;21.52;63.96;97315.73;626777;226;67161;-66
2022/04/15 07:20:33;;;;;;;;;;;;;;;21.50;60.97;97313.34;626291;226;64786;-66
2022/04/15 07:23:01;;;;;;;;;;;;;;;21.53;66.04;97312.02;626236;226;65328;-67
2022/04/15 07:25:29;;;;;;;;;;;;;;;21.52;66.47;97314.94;626819;226;67171;-67
2022/04/15 07:27:56;;;;;;;;;;;;;;;21.54;67.52;97315.48;625917;226;67049;-67
2022/04/15 07:30:24;;;;;;;;;;;;;;;21.54;63.61;97310.14;626788;226;65361;-67
2022/04/15 07:32:55;;;;;;;;;;;;;;;21.57;64.77;97305.05;626795;226;67186;-66
2022/04/15 07:35:22;;;;;;;;;;;;;;;21.58;64.86;97297.82;626890;226;66896;-66
2022/04/15 07:37:50;;;;;;;;;;;;;;;21.61;61.94;97297.31;626783;226;65315;-66
2022/04/15 07:40:17;;;;;;;;;;;;;;;21.62;60.25;97301.58;626758;226;67157;-65
2022/04/15 07:42:45;;;;;;;;;;;;;;;21.60;64.84;97301.04;626836;226;67370;-69
2022/04/15 07:45:12;;;;;;;;;;;;;;;21.54;58.57;97297.56;626781;226;65355;-66
2022/04/15 07:47:40;;;;;;;;;;;;;;;21.61;61.11;97295.44;626732;226;67221;-66
2022/04/15 07:50:08;;;;;;;;;;;;;;;21.58;63.47;97298.65;626798;226;64926;-65
2022/04/15 07:52:35;;;;;;;;;;;;;;;21.56;60.66;97299.98;626764;226;65272;-67
2022/04/15 07:55:03;;;;;;;;;;;;;;;21.57;63.93;97291.67;626831;226;65021;-66
2022/04/15 07:57:31;;;;;;;;;;;;;;;21.58;64.46;97287.95;626873;226;67049;-64
2022/04/15 07:59:59;;;;;;;;;;;;;;;21.56;62.94;97282.06;626662;226;65225;-65
2022/04/15 08:02:27;;;;;;;;;;;;;;;21.58;63.71;97287.95;626899;226;64483;-65
2022/04/15 08:04:54;;;;;;;;;;;;;;;21.57;65.29;97283.66;626590;226;64979;-64
2022/04/15 08:07:22;;;;;;;;;;;;;;;21.57;65.54;97280.19;626763;226;65293;-65
2022/04/15 08:09:50;;;;;;;;;;;;;;;21.57;65.68;97286.33;626797;226;65285;-64
2022/04/15 08:12:17;;;;;;;;;;;;;;;21.57;65.96;97286.33;626818;226;64832;-65
2022/04/15 08:14:45;;;;;;;;;;;;;;;21.58;63.40;97281.78;626810;226;63054;-64
2022/04/15 08:17:12;;;;;;;;;;;;;;;21.59;64.84;97283.40;626826;226;65150;-65
2022/04/15 08:19:40;;;;;;;;;;;;;;;21.59;64.60;97276.17;626790;226;64983;-65
2022/04/15 08:22:09;;;;;;;;;;;;;;;21.61;63.92;97275.92;626775;226;65254;-65
2022/04/15 08:24:42;;;;;;;;;;;;;;;21.61;63.72;97275.92;626851;226;64544;-65
2022/04/15 08:27:06;;;;;;;;;;;;;;;21.61;65.60;97271.37;626632;225;64708;-65
2022/04/15 08:29:35;;;;;;;;;;;;;;;21.62;65.86;97274.84;626863;226;63215;-65
2022/04/15 08:32:02;;;;;;;;;;;;;;;21.60;64.24;97266.27;626780;226;67185;-65
2022/04/15 08:34:30;;;;;;;;;;;;;;;21.62;65.43;97267.61;626796;226;64718;-64
2022/04/15 08:36:57;;;;;;;;;;;;;;;21.63;65.89;97265.73;626826;226;65301;-65
2022/04/15 08:39:25;;;;;;;;;;;;;;;21.61;64.74;97259.88;626814;226;67462;-64
2022/04/15 08:41:54;;;;;;;;;;;;;;;21.62;64.92;97256.91;624898;226;66930;-63
2022/04/15 08:44:22;;;;;;;;;;;;;;;21.63;66.12;97261.18;624541;227;63287;-63
2022/04/15 08:46:51;;;;;;;;;;;;;;;21.62;65.94;97250.77;624551;227;64845;-63
2022/04/15 08:49:20;;;;;;;;;;;;;;;21.62;66.35;97245.41;624541;227;64469;-64
2022/04/15 08:51:49;;;;;;;;;;;;;;;21.63;63.74;97249.69;624473;227;65250;-64
2022/04/15 08:54:18;;;;;;;;;;;;;;;21.64;62.68;97253.98;624563;227;67291;-65
2022/04/15 08:56:45;;;;;;;;;;;;;;;21.65;62.88;97243.00;624518;227;67359;-66
2022/04/15 08:59:14;;;;;;;;;;;;;;;21.66;62.52;97239.27;624565;227;65181;-64
2022/04/15 09:01:42;;;;;;;;;;;;;;;21.66;61.94;97227.74;624582;227;64999;-66
2022/04/15 09:04:10;;;;;;;;;;;;;;;21.67;62.12;97234.72;624446;227;67272;-66
2022/04/15 09:06:38;;;;;;;;;;;;;;;21.68;62.67;97225.61;624618;227;65344;-64
2022/04/15 09:09:08;;;;;;;;;;;;;;;21.69;63.46;97224.55;624597;227;67324;-64
2022/04/15 09:11:36;;;;;;;;;;;;;;;21.69;63.67;97216.53;624449;226;64664;-65
2022/04/15 09:14:05;;;;;;;;;;;;;;;21.70;63.05;97218.92;624577;227;63066;-65
2022/04/15 09:16:34;;;;;;;;;;;;;;;21.71;62.61;97214.37;624482;226;64714;-65
2022/04/15 09:19:02;;;;;;;;;;;;;;;21.71;62.71;97211.69;624491;226;64832;-65
2022/04/15 09:21:29;;;;;;;;;;;;;;;21.72;62.99;97213.31;624592;227;63102;-65
2022/04/15 09:23:58;;;;;;;;;;;;;;;21.73;63.68;97212.23;624492;227;67318;-65
2022/04/15 09:26:26;;;;;;;;;;;;;;;21.72;63.09;97208.76;624573;227;67073;-65
2022/04/15 09:28:54;;;;;;;;;;;;;;;21.73;63.35;97207.67;624587;227;65234;-65
2022/04/15 09:31:23;;;;;;;;;;;;;;;21.75;62.78;97207.42;624466;227;64940;-64
2022/04/15 09:33:54;;;;;;;;;;;;;;;21.74;62.60;97197.77;624525;227;66974;-64
2022/04/15 09:36:23;;;;;;;;;;;;;;;21.75;63.56;97195.92;624543;227;63434;-64
2022/04/15 09:38:52;;;;;;;;;;;;;;;21.77;62.99;97185.73;624369;226;64857;-64
2022/04/15 09:41:21;;;;;;;;;;;;;;;21.76;62.07;97190.28;625808;225;64934;-65
2022/04/15 09:43:50;;;;;;;;;;;;;;;21.77;61.73;97186.55;626829;226;65498;-66
2022/04/15 09:46:17;;;;;;;;;;;;;;;21.76;61.19;97184.94;626748;226;67845;-65
2022/04/15 09:48:58;;;;;;;;;;;;;;;21.76;61.20;97173.44;626870;226;67202;-66
2022/04/15 09:51:25;;;;;;;;;;;;;;;21.75;61.04;97164.63;626733;226;63246;-65
2022/04/15 09:53:55;;;;;;;;;;;;;;;21.75;61.00;97169.97;626746;226;64968;-66
2022/04/15 09:56:26;;;;;;;;;;;;;;;21.75;60.25;97167.30;626529;225;64782;-65
2022/04/15 09:58:56;;;;;;;;;;;;;;;21.75;59.95;97161.95;626784;226;63267;-65
2022/04/15 10:01:26;;;;;;;;;;;;;;;21.76;62.30;97160.86;626589;226;67273;-71
2022/04/15 10:03:55;;;;;;;;;;;;;;;21.78;59.23;97158.72;626806;226;66730;-66
2022/04/15 10:06:23;;;;;;;;;;;;;;;21.78;60.58;97161.39;626780;226;65209;-65
2022/04/15 10:08:51;;;;;;;;;;;;;;;21.79;61.60;97154.17;626810;226;67259;-65
2022/04/15 10:11:19;;;;;;;;;;;;;;;21.78;60.98;97153.38;626755;226;67371;-65
2022/04/15 10:13:46;;;;;;;;;;;;;;;21.75;61.19;97145.09;626806;226;63259;-65
2022/04/15 10:16:14;;;;;;;;;;;;;;;21.75;62.00;97145.09;626816;226;64927;-65
2022/04/15 10:18:41;;;;;;;;;;;;;;;21.73;61.00;97135.45;626830;226;64908;-65
2022/04/15 10:21:09;;;;;;;;;;;;;;;21.72;61.31;97133.86;626770;226;65424;-65
2022/04/15 10:23:36;;;;;;;;;;;;;;;21.72;61.69;97133.07;626832;226;67254;-65
2022/04/15 10:26:06;;;;;;;;;;;;;;;21.69;60.26;97129.06;626792;226;67033;-66
2022/04/15 10:28:44;;;;;;;;;;;;;;;21.71;58.90;97126.09;626803;226;65324;-67
2022/04/15 10:31:14;;;;;;;;;;;;;;;21.74;61.53;97125.55;626747;226;64734;-66
2022/04/15 10:33:42;;;;;;;;;;;;;;;21.73;61.05;97123.95;626813;226;64939;-66
2022/04/15 10:36:16;;;;;;;;;;;;;;;21.74;59.42;97122.88;626550;226;63219;-65
2022/04/15 10:38:57;;;;;;;;;;;;;;;21.77;59.66;97118.85;626756;226;67465;-65
2022/04/15 10:41:26;;;;;;;;;;;;;;;21.77;58.92;97108.98;621944;226;48018;-65
2022/04/15 10:44:00;;;;;;;;;;;;;;;21.77;58.91;97111.66;626746;226;65402;-67
2022/04/15 10:46:31;;;;;;;;;;;;;;;21.78;59.43;97110.56;626833;226;67066;-66
2022/04/15 10:49:02;;;;;;;;;;;;;;;21.78;59.60;97105.22;626784;226;64936;-66
2022/04/15 10:51:34;;;;;;;;;;;;;;;21.80;59.13;97112.95;625913;226;63027;-67
2022/04/15 10:54:19;;;;;;;;;;;;;;;21.79;59.87;97098.78;619708;229;64681;-66
2022/04/15 10:56:52;;;;;;;;;;;;;;;21.79;59.76;97096.11;619724;229;64889;-66
2022/04/15 11:02:09;;;;;;;;;;;;;;;21.79;59.31;97089.96;619659;229;66947;-66
2022/04/15 11:04:36;;;;;;;;;;;;;;;21.79;60.78;97089.96;619524;228;66934;-66
2022/04/15 11:07:08;;;;;;;;;;;;;;;21.79;60.96;97092.64;619713;229;65329;-67
2022/04/15 11:09:37;;;;;;;;;;;;;;;21.79;61.14;97093.44;617807;229;44878;-67
2022/04/15 11:12:06;;;;;;;;;;;;;;;21.77;60.19;97092.93;619671;229;66821;-68
2022/04/15 11:14:38;;;;;;;;;;;;;;;21.78;60.85;97078.47;619706;229;63245;-67
2022/04/15 11:17:09;;;;;;;;;;;;;;;21.79;60.50;97081.94;619680;229;66999;-67
2022/04/15 11:19:36;;;;;;;;;;;;;;;21.79;60.57;97074.70;619630;229;64605;-67
2022/04/15 11:22:04;;;;;;;;;;;;;;;21.78;61.27;97075.80;619567;229;63201;-67
2022/04/15 11:24:33;;;;;;;;;;;;;;;21.78;60.11;97073.12;619603;229;67004;-67
2022/04/15 11:27:03;;;;;;;;;;;;;;;21.77;60.34;97068.86;619681;229;67374;-67
2022/04/15 11:29:31;;;;;;;;;;;;;;;21.77;60.45;97071.53;619639;229;67325;-67
2022/04/15 11:32:00;;;;;;;;;;;;;;;21.78;60.86;97073.12;619608;229;64997;-67
2022/04/15 11:34:28;;;;;;;;;;;;;;;21.79;59.24;97068.56;619531;229;64905;-67
2022/04/15 11:36:58;;;;;;;;;;;;;;;21.79;59.93;97065.89;619660;229;65646;-67
2022/04/15 11:39:26;;;;;;;;;;;;;;;21.79;59.57;97064.01;619667;229;67303;-67
2022/04/15 11:41:54;;;;;;;;;;;;;;;21.80;60.30;97060.28;619601;229;64872;-67
2022/04/15 11:44:22;;;;;;;;;;;;;;;21.79;61.11;97063.21;619718;229;65272;-67
2022/04/15 11:46:52;;;;;;;;;;;;;;;21.78;61.28;97057.06;619601;229;67034;-67
2022/04/15 11:49:21;;;;;;;;;;;;;;;21.77;60.88;97060.83;619678;229;67027;-72
2022/04/15 11:51:52;;;;;;;;;;;;;;;21.77;60.02;97052.80;619548;229;65278;-67
2022/04/15 11:54:23;;;;;;;;;;;;;;;21.78;59.91;97056.27;619672;229;67534;-68
2022/04/15 11:56:58;;;;;;;;;;;;;;;21.77;60.54;97058.16;619673;229;65037;-67
2022/04/15 11:59:24;;;;;;;;;;;;;;;21.78;60.42;97051.72;619420;229;65419;-67
2022/04/15 12:01:53;;;;;;;;;;;;;;;21.77;60.50;97051.98;619505;229;67090;-68
2022/04/15 12:04:21;;;;;;;;;;;;;;;21.77;60.77;97050.13;619701;229;67000;-69
2022/04/15 12:06:49;;;;;;;;;;;;;;;21.79;59.60;97039.14;619733;229;63040;-69
2022/04/15 12:09:17;;;;;;;;;;;;;;;21.81;57.60;97043.14;619532;229;64738;-69
2022/04/15 12:11:44;;;;;;;;;;;;;;;21.80;60.17;97036.20;619671;229;64433;-71
2022/04/15 12:14:13;;;;;;;;;;;;;;;21.80;60.18;97030.85;619631;229;63445;-70
2022/04/15 12:16:40;;;;;;;;;;;;;;;21.81;61.60;97024.41;619592;229;67320;-70
2022/04/15 12:19:08;;;;;;;;;;;;;;;21.81;59.22;97032.44;619529;229;67087;-69
2022/04/15 12:21:36;;;;;;;;;;;;;;;21.82;59.67;97033.23;619607;229;65251;-68
2022/04/15 12:24:05;;;;;;;;;;;;;;;21.82;59.45;97026.00;619587;229;65851;-68
2022/04/15 12:26:49;;;;;;;;;;;;;;;21.81;59.42;97016.39;619670;229;64999;-68
2022/04/15 12:32:17;;;;;;;;;;;;;;;21.82;59.80;97023.33;619620;229;67296;-69
2022/04/15 12:34:46;;;;;;;;;;;;;;;21.83;60.44;97018.80;619692;229;67621;-69
2022/04/15 12:37:34;;;;;;;;;;;;;;;21.83;60.25;97014.24;619577;229;63226;-68
2022/04/15 12:40:04;;;;;;;;;;;;;;;21.82;60.02;97001.92;619529;227;67217;-69
2022/04/15 12:42:32;;;;;;;;;;;;;;;21.81;60.07;97004.89;617340;228;65260;-69
2022/04/15 12:45:01;;;;;;;;;;;;;;;21.82;59.66;96999.25;617382;230;65297;-70
2022/04/15 12:47:28;;;;;;;;;;;;;;;21.83;59.80;96992.05;617435;230;64915;-69
2022/04/15 12:49:57;;;;;;;;;;;;;;;21.82;59.32;96995.78;617339;230;67052;-69
2022/04/15 12:52:26;;;;;;;;;;;;;;;21.82;60.11;96985.88;617092;228;65446;-69
2022/04/15 12:55:01;;;;;;;;;;;;;;;21.83;59.38;96989.38;617343;228;67070;-69
2022/04/15 12:57:33;;;;;;;;;;;;;;;21.83;60.38;96989.38;617419;230;66913;-68
2022/04/15 13:00:03;;;;;;;;;;;;;;;21.83;60.87;96981.35;617359;230;63059;-68